Time;durP1;ratioP1;P1;durP2;ratioP2;P2;SDS_P1;SDS_P2;PMS_P1;PMS_P2;Temp;Humidity;BMP_temperature;BMP_pressure;BME280_temperature;BME280_humidity;BME280_pressure;Samples;Min_cycle;Max_cycle;Signal;HPM_P1;HPM_P2
2023/03/06 00:00:49;;;;;;;21.85;10.65;;;;;;;2.33;100.00;100616.25;5027986;28;20453;-71
2023/03/06 00:03:14;;;;;;;21.48;10.98;;;;;;;2.36;100.00;100616.97;5046754;28;20037;-72
2023/03/06 00:05:41;;;;;;;23.95;12.10;;;;;;;2.24;100.00;100616.06;5017332;28;20048;-72
2023/03/06 00:08:06;;;;;;;27.83;11.68;;;;;;;2.20;100.00;100609.53;5013506;28;20487;-72
2023/03/06 00:10:32;;;;;;;29.60;13.38;;;;;;;2.13;100.00;100611.72;5044243;28;20139;-72
2023/03/06 00:13:02;;;;;;;31.27;13.30;;;;;;;2.19;100.00;100605.34;5028502;28;20082;-72
2023/03/06 00:15:28;;;;;;;26.95;12.60;;;;;;;2.18;100.00;100596.84;5012562;28;20036;-72
2023/03/06 00:17:55;;;;;;;25.55;13.43;;;;;;;2.33;100.00;100597.53;5011400;28;20035;-72
2023/03/06 00:20:22;;;;;;;27.58;12.85;;;;;;;2.28;100.00;100595.28;5045994;28;20029;-72
2023/03/06 00:22:47;;;;;;;29.20;13.63;;;;;;;2.17;100.00;100591.84;5027144;28;20071;-73
2023/03/06 00:25:16;;;;;;;27.88;13.57;;;;;;;2.14;100.00;100590.31;5021891;28;20480;-72
2023/03/06 00:27:42;;;;;;;26.60;13.25;;;;;;;2.12;100.00;100587.84;5029660;28;20116;-73
2023/03/06 00:30:14;;;;;;;30.83;14.55;;;;;;;2.02;100.00;100594.53;5043138;28;20076;-72
2023/03/06 00:32:41;;;;;;;31.90;14.63;;;;;;;2.01;100.00;100582.66;5041774;28;20807;-73
2023/03/06 00:35:07;;;;;;;27.83;13.50;;;;;;;1.93;100.00;100583.19;5029619;28;20112;-72
2023/03/06 00:37:32;;;;;;;31.05;14.45;;;;;;;1.94;100.00;100579.72;5029005;28;20417;-72
2023/03/06 00:39:58;;;;;;;24.92;12.73;;;;;;;1.92;100.00;100579.03;5030623;28;20594;-72
2023/03/06 00:42:24;;;;;;;29.92;14.52;;;;;;;1.93;100.00;100572.97;5017634;28;20483;-72
2023/03/06 00:44:50;;;;;;;30.70;14.13;;;;;;;1.97;100.00;100567.66;5025852;28;20033;-72
2023/03/06 00:47:16;;;;;;;29.65;13.80;;;;;;;1.96;100.00;100561.72;5028532;28;20029;-73
2023/03/06 00:49:43;;;;;;;27.60;14.05;;;;;;;1.95;100.00;100560.88;5017264;28;20095;-72
2023/03/06 00:52:08;;;;;;;35.13;15.43;;;;;;;2.02;100.00;100556.19;5027601;28;20020;-72
2023/03/06 00:54:34;;;;;;;31.65;14.07;;;;;;;2.04;100.00;100550.97;5028583;28;20415;-71
2023/03/06 00:56:59;;;;;;;34.17;15.57;;;;;;;2.13;100.00;100545.22;5031605;28;20432;-72
2023/03/06 00:59:26;;;;;;;34.13;15.70;;;;;;;2.07;100.00;100549.00;5027162;28;20048;-72
2023/03/06 01:01:52;;;;;;;31.77;14.48;;;;;;;2.07;100.00;100543.88;5042129;28;20033;-72
2023/03/06 01:04:17;;;;;;;31.40;14.27;;;;;;;2.03;100.00;100545.00;5011825;28;20037;-72
2023/03/06 01:06:43;;;;;;;35.80;17.13;;;;;;;1.99;100.00;100538.47;5015039;28;20033;-72
2023/03/06 01:09:08;;;;;;;30.55;14.73;;;;;;;2.13;100.00;100537.53;5022880;28;20400;-71
2023/03/06 01:11:34;;;;;;;35.03;16.42;;;;;;;2.08;100.00;100535.28;5012045;28;20483;-72
2023/03/06 01:13:59;;;;;;;30.88;16.00;;;;;;;2.10;100.00;100533.44;5012839;28;20037;-72
2023/03/06 01:16:25;;;;;;;33.00;16.77;;;;;;;2.06;100.00;100537.13;5028052;28;20372;-72
2023/03/06 01:18:50;;;;;;;44.50;18.60;;;;;;;2.08;100.00;100532.72;5045172;28;20865;-73
2023/03/06 01:21:16;;;;;;;40.58;18.33;;;;;;;2.03;100.00;100526.28;5028145;28;20037;-72
2023/03/06 01:23:41;;;;;;;35.80;17.25;;;;;;;2.02;100.00;100528.03;5030377;28;20041;-72
2023/03/06 01:26:07;;;;;;;37.67;18.63;;;;;;;2.08;100.00;100532.72;5009457;28;20025;-72
2023/03/06 01:28:33;;;;;;;38.15;19.95;;;;;;;2.00;100.00;100529.06;5042157;28;20083;-72
2023/03/06 01:31:01;;;;;;;38.85;19.08;;;;;;;1.97;100.00;100514.75;5026092;28;20422;-72
2023/03/06 01:33:26;;;;;;;36.50;17.73;;;;;;;2.00;100.00;100517.09;5024491;28;20052;-72
2023/03/06 01:35:52;;;;;;;39.83;18.73;;;;;;;1.99;100.00;100512.09;5030871;28;20025;-72
2023/03/06 01:38:17;;;;;;;40.80;19.80;;;;;;;2.07;100.00;100514.91;5025144;28;20492;-72
2023/03/06 01:40:43;;;;;;;42.53;19.13;;;;;;;2.01;100.00;100510.25;5011440;28;20491;-72
2023/03/06 01:43:27;;;;;;;45.50;19.17;;;;;;;2.00;100.00;100506.03;5024305;28;20045;-72
2023/03/06 01:46:31;;;;;;;40.83;19.80;;;;;;;2.11;100.00;100503.53;5037867;28;20032;-72
2023/03/06 01:49:14;;;;;;;;;;;;;;;2.00;100.00;100491.53;5017966;28;20530;-72
2023/03/06 01:51:51;;;;;;;45.45;21.05;;;;;;;2.06;100.00;100485.97;5026499;28;20003;-72
2023/03/06 01:54:24;;;;;;;41.15;19.25;;;;;;;1.99;100.00;100489.88;5043689;28;20040;-72
2023/03/06 01:56:54;;;;;;;44.00;21.48;;;;;;;2.08;100.00;100496.09;5027736;28;20610;-72
2023/03/06 01:59:21;;;;;;;43.72;20.50;;;;;;;1.96;100.00;100492.66;5026749;28;20215;-72
2023/03/06 02:01:47;;;;;;;40.03;20.38;;;;;;;1.91;100.00;100487.06;5040504;28;20044;-72
2023/03/06 02:04:14;;;;;;;45.42;21.52;;;;;;;1.90;100.00;100482.84;5028807;28;20063;-72
2023/03/06 02:06:43;;;;;;;48.45;20.92;;;;;;;1.92;100.00;100483.56;5029849;28;20029;-72
2023/03/06 02:09:11;;;;;;;43.92;20.45;;;;;;;1.94;100.00;100482.53;5012558;28;20184;-73
2023/03/06 02:11:42;;;;;;;52.15;21.92;;;;;;;2.02;100.00;100476.88;5046537;28;20025;-72
2023/03/06 02:14:09;;;;;;;45.63;20.10;;;;;;;2.02;100.00;100479.44;5024477;28;20037;-72
2023/03/06 02:16:35;;;;;;;46.05;21.58;;;;;;;1.93;100.00;100474.97;5033848;28;20024;-72
2023/03/06 02:19:03;;;;;;;46.15;21.02;;;;;;;1.95;100.00;100473.94;5038881;28;20033;-72
2023/03/06 02:21:35;;;;;;;49.00;21.30;;;;;;;1.90;100.00;100486.25;5028672;28;20032;-72
2023/03/06 02:24:22;;;;;;;43.63;21.05;;;;;;;1.95;100.00;100476.50;5045255;28;20523;-72
2023/03/06 02:26:49;;;;;;;45.90;20.08;;;;;;;1.89;100.00;100476.94;5032632;28;20071;-72
2023/03/06 02:29:22;;;;;;;44.80;20.60;;;;;;;1.88;100.00;100475.28;5010455;28;20918;-72
2023/03/06 02:31:49;;;;;;;44.35;20.80;;;;;;;1.87;100.00;100471.09;5012043;28;20090;-72
2023/03/06 02:34:14;;;;;;;38.60;18.77;;;;;;;1.93;100.00;100472.41;5023451;28;20033;-72
2023/03/06 02:36:54;;;;;;;38.55;18.90;;;;;;;1.82;100.00;100469.78;5026538;28;20649;-72
2023/03/06 02:39:23;;;;;;;39.13;19.98;;;;;;;1.93;100.00;100463.00;5045746;28;20044;-72
2023/03/06 02:41:49;;;;;;;42.50;20.00;;;;;;;1.96;100.00;100472.22;5028696;28;20037;-72
2023/03/06 02:44:16;;;;;;;42.13;20.25;;;;;;;1.98;100.00;100460.13;5028634;28;20522;-72
2023/03/06 02:46:41;;;;;;;39.60;19.92;;;;;;;1.98;100.00;100467.81;5029840;28;20064;-72
2023/03/06 02:49:08;;;;;;;40.22;20.45;;;;;;;2.01;100.00;100461.66;5032147;28;20028;-72
2023/03/06 02:51:34;;;;;;;45.50;20.45;;;;;;;1.99;100.00;100473.72;5025829;28;20064;-72
2023/03/06 02:53:59;;;;;;;44.45;20.65;;;;;;;1.93;100.00;100463.00;5030885;28;20033;-72
2023/03/06 02:56:25;;;;;;;43.10;20.17;;;;;;;2.03;100.00;100455.47;5029965;28;20461;-72
2023/03/06 02:58:50;;;;;;;40.20;18.58;;;;;;;1.95;100.00;100463.69;5024508;28;20078;-72
2023/03/06 03:01:16;;;;;;;45.65;20.38;;;;;;;1.91;100.00;100457.19;5028693;28;20033;-72
2023/03/06 03:03:42;;;;;;;43.63;18.33;;;;;;;1.89;100.00;100459.03;5014032;28;20041;-72
2023/03/06 03:06:09;;;;;;;44.40;20.52;;;;;;;1.92;100.00;100451.16;5028828;28;20058;-72
2023/03/06 03:08:35;;;;;;;40.30;20.73;;;;;;;1.91;100.00;100446.13;5027868;28;20041;-72
2023/03/06 03:11:03;;;;;;;47.85;20.08;;;;;;;1.89;100.00;100453.91;5013488;28;20032;-71
2023/03/06 03:13:36;;;;;;;41.88;19.52;;;;;;;1.83;100.00;100436.44;5034984;28;20040;-72
2023/03/06 03:16:05;;;;;;;45.17;20.70;;;;;;;1.77;100.00;100446.28;5029220;28;20398;-72
2023/03/06 03:21:07;;;;;;;;;;;;;;;1.85;100.00;100449.13;4958952;28;20053;-75
2023/03/06 03:23:32;;;;;;;51.92;22.80;;;;;;;1.92;100.00;100443.47;4953285;28;19980;-75
2023/03/06 03:26:14;;;;;;;56.65;23.77;;;;;;;1.85;100.00;100439.72;4967505;28;20076;-76
2023/03/06 03:28:43;;;;;;;50.45;22.80;;;;;;;1.79;100.00;100435.03;4962597;28;20045;-75
2023/03/06 03:31:12;;;;;;;50.95;22.00;;;;;;;1.82;100.00;100426.31;4967186;28;20496;-75
2023/03/06 03:33:38;;;;;;;52.22;23.40;;;;;;;1.80;100.00;100423.06;4975786;28;20046;-75
2023/03/06 03:36:06;;;;;;;55.70;23.65;;;;;;;1.93;100.00;100419.53;4962534;28;20040;-75
2023/03/06 03:38:33;;;;;;;50.30;22.85;;;;;;;1.86;100.00;100425.19;4962956;28;20046;-75
2023/03/06 03:41:03;;;;;;;49.85;22.60;;;;;;;1.88;100.00;100406.25;4965303;28;20026;-75
2023/03/06 03:43:29;;;;;;;52.03;23.58;;;;;;;1.81;100.00;100414.44;4981134;28;20050;-75
2023/03/06 03:45:56;;;;;;;54.17;24.42;;;;;;;1.85;100.00;100410.78;4968173;28;20068;-74
2023/03/06 03:48:22;;;;;;;53.08;22.95;;;;;;;1.83;100.00;100410.88;4982482;28;20062;-75
2023/03/06 03:50:47;;;;;;;57.10;24.48;;;;;;;1.82;100.00;100405.88;4970152;28;20034;-75
2023/03/06 03:53:13;;;;;;;55.00;26.05;;;;;;;1.80;100.00;100408.53;4970580;28;20042;-75
2023/03/06 03:55:39;;;;;;;61.58;26.63;;;;;;;1.77;100.00;100398.50;4971490;28;20117;-75
2023/03/06 03:58:05;;;;;;;62.20;27.27;;;;;;;1.88;100.00;100395.19;4982936;28;20045;-75
2023/03/06 04:00:32;;;;;;;61.75;27.00;;;;;;;1.90;100.00;100394.19;4954509;28;20030;-75
2023/03/06 04:03:06;;;;;;;73.22;28.60;;;;;;;1.90;100.00;100406.13;4992215;28;20040;-75
2023/03/06 04:05:36;;;;;;;68.60;29.05;;;;;;;1.81;100.00;100399.13;4970820;28;20519;-75
2023/03/06 04:08:05;;;;;;;67.38;28.20;;;;;;;1.90;100.00;100396.75;4975602;28;20050;-75
2023/03/06 04:10:33;;;;;;;72.35;29.92;;;;;;;1.80;100.00;100398.31;4974515;28;20038;-75
2023/03/06 04:12:59;;;;;;;62.08;27.15;;;;;;;1.89;100.00;100386.63;4976311;28;20057;-74
2023/03/06 04:15:26;;;;;;;66.68;27.35;;;;;;;1.99;100.00;100391.88;4973208;28;20137;-75
2023/03/06 04:17:51;;;;;;;65.80;27.42;;;;;;;1.91;100.00;100383.00;4984534;28;20551;-75
2023/03/06 04:20:20;;;;;;;71.18;27.88;;;;;;;1.91;100.00;100377.09;4974828;28;20038;-75
2023/03/06 04:22:46;;;;;;;65.70;29.38;;;;;;;1.89;100.00;100376.38;4983671;28;20050;-75
2023/03/06 04:25:12;;;;;;;68.82;28.13;;;;;;;1.97;100.00;100373.28;4972341;28;20023;-75
2023/03/06 04:27:37;;;;;;;75.43;29.45;;;;;;;1.86;100.00;100372.28;4990536;28;20117;-75
2023/03/06 04:30:05;;;;;;;76.10;30.35;;;;;;;1.92;100.00;100373.59;4972575;28;20600;-75
2023/03/06 04:32:32;;;;;;;72.20;30.40;;;;;;;1.78;100.00;100369.47;4987139;28;20029;-75
2023/03/06 04:34:58;;;;;;;72.60;30.50;;;;;;;1.74;100.00;100362.97;4985015;28;20070;-75
2023/03/06 04:37:25;;;;;;;67.93;29.45;;;;;;;1.78;100.00;100363.56;4968383;28;20054;-75
2023/03/06 04:39:52;;;;;;;72.15;28.92;;;;;;;1.85;100.00;100360.44;4968999;28;20074;-74
2023/03/06 04:42:18;;;;;;;71.35;29.02;;;;;;;1.85;100.00;100364.75;4972860;28;20045;-75
2023/03/06 04:44:44;;;;;;;67.90;28.30;;;;;;;1.80;100.00;100352.28;4989700;28;20046;-75
2023/03/06 04:47:10;;;;;;;66.95;27.92;;;;;;;1.77;100.00;100359.34;4969526;28;20038;-74
2023/03/06 04:49:35;;;;;;;70.18;28.90;;;;;;;1.86;100.00;100359.50;4974152;28;20030;-75
2023/03/06 04:52:01;;;;;;;68.38;27.58;;;;;;;1.80;100.00;100354.03;4986468;28;20034;-76
2023/03/06 04:54:26;;;;;;;64.70;25.70;;;;;;;1.75;100.00;100352.63;4967007;28;20509;-75
2023/03/06 04:56:52;;;;;;;63.75;27.20;;;;;;;1.81;100.00;100353.94;4973140;28;20022;-74
2023/03/06 04:59:17;;;;;;;66.32;27.30;;;;;;;1.74;100.00;100350.97;4967985;28;20073;-75
2023/03/06 05:01:43;;;;;;;69.78;25.27;;;;;;;1.79;100.00;100358.34;4968950;28;20045;-74
2023/03/06 05:04:08;;;;;;;58.22;25.13;;;;;;;1.73;100.00;100356.19;4974093;28;20284;-75
2023/03/06 05:06:34;;;;;;;61.55;26.63;;;;;;;1.71;100.00;100356.34;4981575;28;20045;-76
2023/03/06 05:08:59;;;;;;;60.80;26.05;;;;;;;1.71;100.00;100353.78;4973480;28;20038;-74
2023/03/06 05:11:25;;;;;;;53.97;23.95;;;;;;;1.73;100.00;100358.75;4979546;28;20392;-75
2023/03/06 05:13:50;;;;;;;68.18;24.95;;;;;;;1.69;100.00;100357.34;4968752;28;20046;-75
2023/03/06 05:16:16;;;;;;;57.67;25.10;;;;;;;1.69;100.00;100354.78;4972083;28;20050;-75
2023/03/06 05:18:41;;;;;;;58.55;24.70;;;;;;;1.74;100.00;100357.84;4968264;28;20066;-75
2023/03/06 05:21:07;;;;;;;71.20;25.38;;;;;;;1.69;100.00;100355.59;4949505;28;20038;-75
2023/03/06 05:23:37;;;;;;;59.05;23.70;;;;;;;1.74;100.00;100356.09;4984880;28;20547;-75
2023/03/06 05:26:08;;;;;;;52.58;23.88;;;;;;;1.81;100.00;100348.81;4985594;28;20116;-75
2023/03/06 05:28:34;;;;;;;58.10;24.33;;;;;;;1.82;100.00;100355.53;4983736;28;20392;-74
2023/03/06 05:31:00;;;;;;;57.55;23.17;;;;;;;1.86;100.00;100354.41;4970169;28;20038;-75
2023/03/06 05:33:26;;;;;;;52.95;22.95;;;;;;;1.84;100.00;100358.81;4981304;28;20050;-75
2023/03/06 05:35:51;;;;;;;49.67;21.95;;;;;;;1.85;100.00;100357.09;4978053;28;20423;-75
2023/03/06 05:38:17;;;;;;;49.83;21.48;;;;;;;1.79;100.00;100354.94;4983530;28;20641;-76
2023/03/06 05:40:43;;;;;;;57.70;21.80;;;;;;;1.77;100.00;100351.69;4968977;28;22879;-76
2023/03/06 05:43:10;;;;;;;55.10;23.15;;;;;;;1.74;100.00;100347.63;4988356;28;20064;-74
2023/03/06 05:45:36;;;;;;;53.95;23.33;;;;;;;1.70;100.00;100348.78;4984810;28;20037;-75
2023/03/06 05:48:03;;;;;;;56.05;22.92;;;;;;;1.64;100.00;100344.91;4971540;28;20046;-74
2023/03/06 05:50:28;;;;;;;46.65;20.60;;;;;;;1.63;100.00;100345.81;4969723;28;20042;-75
2023/03/06 05:52:54;;;;;;;55.08;22.63;;;;;;;1.65;100.00;100338.84;4970344;28;20034;-75
2023/03/06 05:55:20;;;;;;;66.45;24.48;;;;;;;1.74;100.00;100343.31;4991291;28;20046;-74
2023/03/06 05:57:46;;;;;;;60.67;26.40;;;;;;;1.70;100.00;100341.91;4967485;28;20033;-75
2023/03/06 06:00:13;;;;;;;60.10;25.73;;;;;;;1.63;100.00;100333.03;4972799;28;20121;-75
2023/03/06 06:02:40;;;;;;;55.25;23.88;;;;;;;1.67;100.00;100337.00;4968491;28;20177;-75
2023/03/06 06:05:06;;;;;;;56.63;24.25;;;;;;;1.64;100.00;100331.28;4988698;28;20555;-74
2023/03/06 06:07:32;;;;;;;62.92;25.45;;;;;;;1.56;100.00;100334.41;4968212;28;20073;-75
2023/03/06 06:09:57;;;;;;;60.42;25.15;;;;;;;1.52;100.00;100333.00;4974590;28;20042;-74
2023/03/06 06:12:23;;;;;;;60.47;25.77;;;;;;;1.51;100.00;100336.47;4968628;28;20043;-75
2023/03/06 06:14:49;;;;;;;65.28;26.48;;;;;;;1.48;100.00;100336.69;4989801;28;20037;-75
2023/03/06 06:17:15;;;;;;;59.53;24.30;;;;;;;1.52;100.00;100333.00;4968798;28;20034;-75
2023/03/06 06:19:41;;;;;;;57.58;24.73;;;;;;;1.52;100.00;100330.44;4969082;28;20054;-75
2023/03/06 06:22:07;;;;;;;61.80;26.27;;;;;;;1.59;100.00;100330.81;4967190;28;20658;-75
2023/03/06 06:24:32;;;;;;;62.17;26.25;;;;;;;1.66;100.00;100332.03;4963937;28;20035;-75
2023/03/06 06:26:58;;;;;;;55.72;23.45;;;;;;;1.60;100.00;100335.00;4971197;28;20564;-75
2023/03/06 06:29:26;;;;;;;57.50;24.42;;;;;;;1.61;100.00;100328.97;4969261;28;20026;-75
2023/03/06 06:31:52;;;;;;;59.65;23.00;;;;;;;1.52;100.00;100335.53;4967284;28;20674;-75
2023/03/06 06:34:19;;;;;;;54.40;22.67;;;;;;;1.59;100.00;100336.75;4967825;28;20046;-75
2023/03/06 06:36:45;;;;;;;50.22;21.17;;;;;;;1.51;100.00;100329.63;4984277;28;20161;-75
2023/03/06 06:39:14;;;;;;;50.25;23.33;;;;;;;1.54;100.00;100336.25;4984128;28;20494;-75
2023/03/06 06:41:39;;;;;;;51.55;20.83;;;;;;;1.52;100.00;100338.91;4971707;28;20022;-74
2023/03/06 06:44:08;;;;;;;53.42;22.45;;;;;;;1.51;100.00;100336.47;4970418;28;20408;-75
2023/03/06 06:46:34;;;;;;;53.58;21.70;;;;;;;1.61;100.00;100340.00;4984821;28;20046;-74
2023/03/06 06:49:01;;;;;;;53.08;20.95;;;;;;;1.53;100.00;100340.56;4988622;28;20038;-74
2023/03/06 06:51:30;;;;;;;49.90;21.23;;;;;;;1.53;100.00;100335.44;4986793;28;20472;-75
2023/03/06 06:53:55;;;;;;;51.97;20.65;;;;;;;1.48;100.00;100334.13;4972518;28;20508;-75
2023/03/06 06:56:21;;;;;;;47.78;20.55;;;;;;;1.48;100.00;100339.25;4987595;28;20088;-75
2023/03/06 06:58:46;;;;;;;54.78;21.40;;;;;;;1.65;100.00;100338.84;4986033;28;20034;-75
2023/03/06 07:01:12;;;;;;;48.20;19.73;;;;;;;1.65;100.00;100340.59;4992858;28;20027;-74
2023/03/06 07:03:39;;;;;;;54.03;21.27;;;;;;;1.70;100.00;100334.25;4989057;28;20030;-74
2023/03/06 07:06:05;;;;;;;53.80;21.02;;;;;;;1.70;100.00;100339.34;4970913;28;20552;-75
2023/03/06 07:08:31;;;;;;;54.63;21.55;;;;;;;1.72;100.00;100345.16;4972034;28;20073;-75
2023/03/06 07:10:57;;;;;;;51.78;23.08;;;;;;;1.74;100.00;100342.50;4985571;28;20035;-75
2023/03/06 07:13:23;;;;;;;51.08;20.55;;;;;;;1.86;100.00;100341.59;4989979;28;20044;-75
2023/03/06 07:15:48;;;;;;;58.20;23.42;;;;;;;1.83;100.00;100338.44;4967068;28;20035;-76
2023/03/06 07:18:14;;;;;;;65.68;24.73;;;;;;;1.77;100.00;100341.47;4968284;28;20066;-75
2023/03/06 07:20:39;;;;;;;67.65;23.92;;;;;;;1.78;100.00;100338.00;4970206;28;20030;-74
2023/03/06 07:23:10;;;;;;;61.55;25.35;;;;;;;1.76;100.00;100343.22;4988112;28;20038;-75
2023/03/06 07:25:36;;;;;;;71.82;29.67;;;;;;;1.86;100.00;100346.72;4972227;28;20045;-75
2023/03/06 07:28:01;;;;;;;67.97;27.20;;;;;;;1.91;100.00;100346.41;4972774;28;20053;-74
2023/03/06 07:30:27;;;;;;;72.07;29.33;;;;;;;1.99;100.00;100350.97;4994657;28;20235;-76
2023/03/06 07:32:56;;;;;;;79.30;30.95;;;;;;;1.83;100.00;100351.22;4990752;28;20089;-75
2023/03/06 07:35:23;;;;;;;80.82;31.10;;;;;;;1.86;100.00;100345.91;4971143;28;20489;-74
2023/03/06 07:37:49;;;;;;;83.38;32.17;;;;;;;1.85;100.00;100337.44;4969453;28;20373;-75
2023/03/06 07:40:16;;;;;;;82.63;32.40;;;;;;;1.83;100.00;100335.91;4993854;28;20106;-75
2023/03/06 07:42:42;;;;;;;89.65;33.70;;;;;;;1.93;100.00;100340.25;4983396;28;20037;-75
2023/03/06 07:45:12;;;;;;;95.78;36.17;;;;;;;2.03;100.00;100337.81;4969623;28;20069;-75
2023/03/06 07:47:38;;;;;;;98.30;37.72;;;;;;;2.00;100.00;100327.84;4982709;28;20050;-75
2023/03/06 07:53:50;;;;;;;96.95;36.70;;;;;;;2.04;100.00;100333.56;4985735;28;20473;-75
2023/03/06 07:56:18;;;;;;;100.60;38.80;;;;;;;2.12;100.00;100334.59;4972586;28;20038;-75
2023/03/06 07:58:45;;;;;;;97.78;39.83;;;;;;;2.15;100.00;100331.03;4991364;28;20030;-75
2023/03/06 08:23:54;;;;;;;76.55;30.77;;;;;;;2.64;100.00;100326.53;4986821;28;20186;-75
2023/03/06 08:26:25;;;;;;;72.38;29.85;;;;;;;2.61;100.00;100330.13;4986695;28;20085;-75
2023/03/06 09:14:53;;;;;;;57.60;25.75;;;;;;;3.16;100.00;100330.22;4993962;28;20652;-74
2023/03/06 09:17:28;;;;;;;64.93;29.10;;;;;;;3.04;100.00;100326.06;4990658;28;20042;-74
2023/03/06 09:19:54;;;;;;;61.28;26.55;;;;;;;3.06;100.00;100326.75;5015497;23;20049;-71
2023/03/06 09:22:19;;;;;;;67.60;25.17;;;;;;;2.95;100.00;100326.75;5009837;28;20517;-71
2023/03/06 09:24:45;;;;;;;62.97;25.73;;;;;;;2.81;100.00;100341.44;5002060;28;20037;-72
2023/03/06 09:27:10;;;;;;;62.55;24.33;;;;;;;2.73;100.00;100348.88;5024181;28;20029;-71
2023/03/06 09:29:36;;;;;;;60.22;25.13;;;;;;;2.79;100.00;100334.78;5009816;28;20033;-71
2023/03/06 09:36:45;;;;;;;56.03;23.77;;;;;;;2.91;100.00;100344.09;5004928;28;20053;-71
2023/03/06 09:39:10;;;;;;;66.45;28.38;;;;;;;2.95;100.00;100331.88;5002997;28;20522;-71
2023/03/06 09:41:40;;;;;;;56.88;24.40;;;;;;;2.96;100.00;100338.63;4988414;28;20034;-71
2023/03/06 09:44:13;;;;;;;60.80;25.63;;;;;;;2.91;100.00;100347.47;4989283;28;20125;-71
2023/03/06 09:47:07;;;;;;;54.65;24.08;;;;;;;3.10;100.00;100343.50;4989588;28;20109;-71
2023/03/06 09:49:51;;;;;;;;;;;;;;;2.98;100.00;100336.78;4988952;28;20112;-71
2023/03/06 09:52:22;;;;;;;44.05;20.23;;;;;;;2.92;100.00;100344.00;5006297;28;19917;-71
2023/03/06 09:54:55;;;;;;;49.78;21.58;;;;;;;2.85;100.00;100347.16;5005546;28;20042;-71
2023/03/06 09:57:29;;;;;;;;;;;;;;;2.72;100.00;100335.25;5009406;28;20129;-71
2023/03/06 10:00:00;;;;;;;53.28;22.02;;;;;;;2.78;100.00;100346.78;5005372;28;20314;-72
2023/03/06 10:02:49;;;;;;;51.53;22.45;;;;;;;2.68;100.00;100344.09;5005896;28;20149;-72
2023/03/06 10:05:32;;;;;;;53.88;23.70;;;;;;;2.67;100.00;100347.59;5025934;28;20538;-72
2023/03/06 10:08:19;;;;;;;56.95;23.98;;;;;;;2.68;100.00;100346.66;5040811;28;20372;-72
2023/03/06 10:10:56;;;;;;;49.97;21.55;;;;;;;2.70;100.00;100344.00;5006803;28;20113;-71
2023/03/06 10:32:44;;;;;;;53.53;23.85;;;;;;;3.24;100.00;100333.00;5033960;28;20102;-71
2023/03/06 10:35:17;;;;;;;55.58;23.02;;;;;;;3.06;100.00;100326.75;5023887;28;20056;-71
2023/03/06 10:37:42;;;;;;;59.40;26.23;;;;;;;3.05;100.00;100335.34;5039915;28;20044;-71
2023/03/06 10:40:22;;;;;;;64.10;25.98;;;;;;;3.16;100.00;100334.53;5027900;28;20033;-71
2023/03/06 10:42:48;;;;;;;58.67;25.13;;;;;;;3.22;100.00;100334.03;5027925;28;20705;-72
2023/03/06 10:45:15;;;;;;;57.33;26.58;;;;;;;3.08;100.00;100340.25;5025694;28;20029;-71
2023/03/06 10:47:42;;;;;;;59.72;24.20;;;;;;;3.09;100.00;100336.75;5040971;28;20063;-71
2023/03/06 10:50:26;;;;;;;62.70;26.23;;;;;;;3.19;100.00;100344.56;5025225;28;20059;-71
2023/03/06 10:53:19;;;;;;;56.78;24.70;;;;;;;3.06;100.00;100340.38;5036066;28;20456;-70
2023/03/06 10:55:55;;;;;;;;;;;;;;;3.11;100.00;100347.72;5041122;28;20091;-71
2023/03/06 10:58:41;;;;;;;63.08;27.00;;;;;;;3.13;100.00;100338.16;5007607;28;19948;-71
2023/03/06 11:51:39;;;;;;;46.40;21.25;;;;;;;4.30;98.45;100323.69;5026667;28;20046;-71
2023/03/06 11:54:08;;;;;;;;;;;;;;;4.21;98.19;100324.44;5032383;28;20060;-70
2023/03/06 12:04:29;;;;;;;49.17;21.27;;;;;;;4.28;99.12;100317.88;5026718;28;20044;-71
2023/03/06 12:07:00;;;;;;;47.78;22.05;;;;;;;4.07;98.21;100310.19;5023267;28;20554;-70
2023/03/06 12:09:52;;;;;;;40.67;20.38;;;;;;;4.07;98.83;100310.19;5017904;28;20041;-71
2023/03/06 15:56:38;;;;;;;28.10;15.05;;;;;;;5.40;82.20;100148.91;5046842;28;20064;-73
2023/03/06 15:59:08;;;;;;;32.55;15.93;;;;;;;5.35;82.51;100140.00;5047945;28;20041;-72
2023/03/06 16:01:33;;;;;;;32.63;15.07;;;;;;;5.30;83.07;100147.31;5042703;23;21190;-76
2023/03/06 16:03:59;;;;;;;36.10;16.73;;;;;;;5.43;82.77;100137.56;5023238;28;20033;-76
2023/03/06 16:06:25;;;;;;;31.40;15.85;;;;;;;5.21;83.74;100129.19;5028446;28;20021;-76
2023/03/06 16:08:51;;;;;;;31.90;16.17;;;;;;;5.19;83.49;100131.09;5048790;28;20494;-76
2023/03/06 16:11:25;;;;;;;38.67;18.15;;;;;;;5.16;82.64;100127.97;5029764;28;20033;-76
2023/03/06 16:13:53;;;;;;;33.58;16.38;;;;;;;5.26;82.32;100128.78;5014292;28;20042;-77
2023/03/06 16:16:23;;;;;;;32.85;15.82;;;;;;;5.19;82.15;100120.81;5012998;28;20032;-76
2023/03/06 16:18:49;;;;;;;40.20;18.50;;;;;;;5.18;82.99;100126.91;5013529;28;20045;-76
2023/03/06 16:21:14;;;;;;;34.95;16.75;;;;;;;5.33;82.73;100127.28;5031015;28;20040;-77
2023/03/06 16:23:40;;;;;;;35.35;16.55;;;;;;;5.17;83.18;100120.13;5030851;28;20072;-76
2023/03/06 16:26:16;;;;;;;31.92;15.80;;;;;;;5.06;83.86;100123.66;5015745;28;20140;-76
2023/03/06 16:28:44;;;;;;;37.70;17.80;;;;;;;5.04;83.67;100119.59;5029461;28;20044;-76
2023/03/06 16:31:12;;;;;;;37.70;18.52;;;;;;;5.05;84.65;100121.25;5046313;28;21124;-76
2023/03/06 16:33:37;;;;;;;36.33;16.20;;;;;;;4.98;84.45;100109.88;5044852;28;20125;-76
2023/03/06 16:36:32;;;;;;;35.83;16.98;;;;;;;4.91;85.51;100108.81;5016399;28;20656;-76
2023/03/06 16:38:58;;;;;;;40.88;17.48;;;;;;;4.90;85.02;100104.59;5016510;28;20410;-76
2023/03/06 16:41:24;;;;;;;35.03;16.65;;;;;;;4.85;85.60;100103.25;5028108;28;20028;-76
2023/03/06 16:43:49;;;;;;;38.50;16.98;;;;;;;4.86;85.80;100098.94;5026281;28;20036;-76
2023/03/06 16:46:18;;;;;;;35.33;16.20;;;;;;;4.83;85.50;100094.88;5012658;28;20036;-76
2023/03/06 16:48:44;;;;;;;36.45;18.15;;;;;;;4.66;86.25;100095.56;5026625;28;20375;-77
2023/03/06 16:51:15;;;;;;;41.47;16.30;;;;;;;4.67;86.65;100089.44;5027831;28;20039;-76
2023/03/06 16:53:42;;;;;;;33.92;16.40;;;;;;;4.60;87.15;100099.47;5032525;28;20079;-77
2023/03/06 16:56:10;;;;;;;41.00;18.35;;;;;;;4.63;87.98;100088.94;5030447;28;20101;-76
2023/03/06 16:58:35;;;;;;;31.42;17.00;;;;;;;4.60;88.01;100084.06;5008532;28;20041;-76
2023/03/06 17:01:01;;;;;;;34.92;16.83;;;;;;;4.53;87.81;100075.25;5013154;28;20082;-76
2023/03/06 17:03:26;;;;;;;35.05;17.23;;;;;;;4.61;87.02;100088.22;5028529;28;20048;-76
2023/03/06 17:05:52;;;;;;;44.22;19.00;;;;;;;4.74;86.21;100082.03;5015252;28;20153;-76
2023/03/06 17:08:17;;;;;;;41.17;17.85;;;;;;;4.59;86.90;100079.06;5012137;28;20036;-76
2023/03/06 17:10:43;;;;;;;39.70;17.65;;;;;;;4.49;88.09;100077.28;5013596;28;20059;-76
2023/03/06 17:13:09;;;;;;;44.63;18.92;;;;;;;4.52;87.34;100071.09;5029448;28;20029;-76
2023/03/06 17:15:35;;;;;;;39.45;19.80;;;;;;;4.42;88.51;100080.53;5017702;28;20036;-76
2023/03/06 17:18:00;;;;;;;43.50;18.98;;;;;;;4.42;88.62;100076.19;5029582;28;20029;-76
2023/03/06 17:20:26;;;;;;;38.15;19.20;;;;;;;4.40;88.38;100069.56;5014262;28;20036;-76
2023/03/06 17:22:52;;;;;;;37.50;17.85;;;;;;;4.37;89.10;100069.84;5039233;28;20450;-76
2023/03/06 17:25:17;;;;;;;37.78;17.98;;;;;;;4.39;89.87;100080.78;5031296;28;21672;-76
2023/03/06 17:27:43;;;;;;;44.88;19.77;;;;;;;4.46;89.39;100074.16;5010532;28;20153;-76
2023/03/06 17:30:09;;;;;;;45.95;19.00;;;;;;;4.39;89.33;100070.50;5029651;28;20029;-76
2023/03/06 17:32:36;;;;;;;41.30;20.38;;;;;;;4.36;90.11;100076.72;5029931;28;20041;-76
2023/03/06 17:35:02;;;;;;;50.92;23.83;;;;;;;4.27;90.96;100070.63;5032916;28;20037;-76
2023/03/06 17:37:27;;;;;;;42.55;20.98;;;;;;;4.27;90.73;100069.81;5015664;28;20029;-76